Terminal Aerodrome Forecast
Issued by NWS Sioux Falls, SD

Home | Current Version | Previous Version | Text Only | Print | Product List | Glossary Off
Versions: 1 2 3 4 5 6 7 8 9 10 11 12 13

000
FTUS43 KFSD 180534
TAFHON
TAF
KHON 180534Z 1806/1906 36006KT P6SM OVC018
     FM181200 VRB03KT P6SM BKN018
     FM181700 16010KT P6SM SCT025=

USA.gov is the U.S. government's official web portal to all federal, state and local government web resources and services.